Time;durP1;ratioP1;P1;durP2;ratioP2;P2;SDS_P1;SDS_P2;PMS_P1;PMS_P2;Temp;Humidity;BMP_temperature;BMP_pressure;BME280_temperature;BME280_humidity;BME280_pressure;Samples;Min_cycle;Max_cycle;Signal;HPM_P1;HPM_P2
2022/12/20 00:03:10;;;;;;;5.38;2.25;;;9.50;99.90;;;;;;5132918;28;20419;-88
2022/12/20 00:06:18;;;;;;;;;;;;;;;;;;;;;
2022/12/20 00:09:33;;;;;;;4.78;2.40;;;9.40;99.90;;;;;;5133970;28;20081;-88
2022/12/20 00:12:22;;;;;;;5.50;2.20;;;9.40;99.90;;;;;;5133953;28;20491;-87
2022/12/20 00:15:30;;;;;;;;;;;;;;;;;;;;;
2022/12/20 00:18:38;;;;;;;4.75;2.10;;;9.30;99.90;;;;;;5077424;28;20126;-85
2022/12/20 00:22:02;;;;;;;;;;;;;;;;;;;;;
2022/12/20 00:25:19;;;;;;;3.15;1.98;;;9.20;99.90;;;;;;5074210;28;20060;-86
2022/12/20 00:28:34;;;;;;;;;;;9.20;99.90;;;;;;5074686;28;20063;-85
2022/12/20 00:31:37;;;;;;;6.68;2.10;;;9.30;99.90;;;;;;5072812;28;19920;-86
2022/12/20 00:35:00;;;;;;;8.07;2.45;;;9.30;99.90;;;;;;5073175;28;20064;-82
2022/12/20 00:38:24;;;;;;;5.20;2.33;;;9.20;99.90;;;;;;5074155;28;20086;-84
2022/12/20 00:41:55;;;;;;;;;;;;;;;;;;;;;
2022/12/20 00:45:26;;;;;;;5.20;1.55;;;9.20;99.90;;;;;;5074081;28;20079;-83
2022/12/20 00:48:32;;;;;;;;;;;9.10;99.90;;;;;;5073954;28;20048;-84
2022/12/20 00:51:58;;;;;;;4.00;1.60;;;9.20;99.90;;;;;;5073897;28;19920;-83
2022/12/20 00:55:22;;;;;;;;;;;;;;;;;;;;;
2022/12/20 00:59:06;;;;;;;;;;;;;;;;;;;;;
2022/12/20 01:02:03;;;;;;;4.45;1.70;;;9.10;99.90;;;;;;5033770;28;20124;-86
2022/12/20 01:05:24;;;;;;;3.15;1.60;;;9.10;99.90;;;;;;5013749;28;20050;-86
2022/12/20 01:08:52;;;;;;;3.28;1.50;;;9.10;99.90;;;;;;5027410;28;20084;-88
2022/12/20 01:11:42;;;;;;;;;;;9.00;99.90;;;;;;5033994;28;20041;-87
2022/12/20 01:14:56;;;;;;;4.80;1.52;;;9.00;99.90;;;;;;5039458;28;19978;-87
2022/12/20 01:18:06;;;;;;;3.53;1.95;;;9.00;99.90;;;;;;5033566;28;20061;-86
2022/12/20 01:21:13;;;;;;;3.45;1.40;;;9.00;99.90;;;;;;5033221;28;20568;-85
2022/12/20 01:24:22;;;;;;;;;;;;;;;;;;;;;
2022/12/20 01:27:32;;;;;;;2.00;1.20;;;9.00;99.90;;;;;;5033310;28;20062;-87
2022/12/20 01:31:08;;;;;;;;;;;;;;;;;;;;;
2022/12/20 01:34:12;;;;;;;7.03;1.67;;;9.00;99.90;;;;;;5032721;28;20533;-87
2022/12/20 01:37:44;;;;;;;2.05;1.30;;;9.10;99.90;;;;;;5052783;28;20056;-84
2022/12/20 01:40:31;;;;;;;3.13;1.70;;;9.10;99.90;;;;;;5036019;28;20441;-85
2022/12/20 01:43:58;;;;;;;;;;;;;;;;;;;;;
2022/12/20 01:47:28;;;;;;;;;;;;;;;;;;;;;
2022/12/20 01:51:04;;;;;;;2.63;1.40;;;9.10;99.90;;;;;;5072803;28;20086;-86
2022/12/20 01:54:36;;;;;;;3.53;1.38;;;9.10;99.90;;;;;;5072522;28;20040;-86
2022/12/20 01:58:09;;;;;;;4.70;1.92;;;9.00;99.90;;;;;;5089779;28;20047;-87
2022/12/20 02:01:28;;;;;;;2.85;1.73;;;9.50;99.90;;;;;;5110538;28;20052;-87
2022/12/20 02:04:40;;;;;;;;;;;;;;;;;;;;;
2022/12/20 02:08:06;;;;;;;5.43;1.77;;;9.00;99.90;;;;;;5063158;28;20060;-87
2022/12/20 02:11:12;;;;;;;3.78;1.58;;;8.90;99.90;;;;;;5070843;28;20410;-88
2022/12/20 02:14:34;;;;;;;2.80;1.60;;;8.90;99.90;;;;;;5072523;28;20095;-87
2022/12/20 02:17:56;;;;;;;;;;;;;;;;;;;;;
2022/12/20 02:21:22;;;;;;;5.38;1.63;;;9.20;99.90;;;;;;5012320;28;20054;-86
2022/12/20 02:25:00;;;;;;;3.08;1.67;;;8.90;99.90;;;;;;5011428;28;20435;-86
2022/12/20 02:28:40;;;;;;;2.33;1.73;;;8.90;99.90;;;;;;4975410;28;20466;-86
2022/12/20 02:32:18;;;;;;;;;;;;;;;;;;;;;
2022/12/20 02:35:40;;;;;;;;;;;;;;;;;;;;;
2022/12/20 02:38:35;;;;;;;5.70;1.75;;;9.00;99.90;;;;;;5011369;28;19964;-87
2022/12/20 02:41:28;;;;;;;3.67;1.40;;;9.10;99.90;;;;;;4995793;28;20049;-87
2022/12/20 02:47:42;;;;;;;4.35;1.80;;;9.20;99.90;;;;;;5031786;28;20045;-86
2022/12/20 02:51:13;;;;;;;;;;;;;;;;;;;;;
2022/12/20 02:54:32;;;;;;;;;;;;;;;;;;;;;
2022/12/20 02:58:02;;;;;;;5.15;1.30;;;9.10;99.90;;;;;;5031453;28;20046;-87
2022/12/20 03:00:50;;;;;;;2.28;1.48;;;9.10;99.90;;;;;;5040118;28;20055;-87
2022/12/20 03:03:48;;;;;;;2.90;1.60;;;9.10;99.90;;;;;;5093228;28;20149;-87
2022/12/20 03:07:16;;;;;;;4.57;1.77;;;9.10;99.90;;;;;;5093420;28;20437;-86
2022/12/20 03:10:36;;;;;;;;;;;;;;;;;;;;;
2022/12/20 03:13:58;;;;;;;;;;;;;;;;;;;;;
2022/12/20 03:17:16;;;;;;;;;;;;;;;;;;;;;
2022/12/20 03:20:42;;;;;;;;;;;;;;;;;;;;;
2022/12/20 03:23:58;;;;;;;;;;;;;;;;;;;;;
2022/12/20 03:27:19;;;;;;;2.78;1.35;;;9.10;99.90;;;;;;5050956;28;20053;-87
2022/12/20 03:30:24;;;;;;;2.75;1.33;;;9.10;99.90;;;;;;5051113;28;20449;-87
2022/12/20 03:33:32;;;;;;;2.58;1.27;;;9.00;99.90;;;;;;5049981;28;20037;-86
2022/12/20 03:36:48;;;;;;;2.75;1.23;;;8.90;99.90;;;;;;5049472;28;20449;-85
2022/12/20 03:40:20;;;;;;;;;;;;;;;;;;;;;
2022/12/20 03:43:48;;;;;;;;;;;;;;;;;;;;;
2022/12/20 03:47:14;;;;;;;2.75;1.58;;;8.90;99.90;;;;;;5072770;28;20384;-87
2022/12/20 03:50:38;;;;;;;;;;;;;;;;;;;;;
2022/12/20 03:53:54;;;;;;;;;;;;;;;;;;;;;
2022/12/20 03:57:14;;;;;;;2.83;1.23;;;9.00;99.90;;;;;;5092886;28;20389;-86
2022/12/20 04:00:34;;;;;;;3.13;1.65;;;9.00;99.90;;;;;;5097199;28;20109;-86
2022/12/20 04:03:28;;;;;;;5.30;1.60;;;9.00;99.90;;;;;;5096669;28;20080;-87
2022/12/20 04:06:44;;;;;;;2.78;1.48;;;9.00;99.90;;;;;;5096805;28;20599;-86
2022/12/20 04:10:18;;;;;;;2.95;1.30;;;9.00;99.90;;;;;;5096699;28;20036;-86
2022/12/20 04:13:48;;;;;;;3.33;1.42;;;9.00;99.90;;;;;;5097006;28;20044;-87
2022/12/20 04:17:08;;;;;;;3.28;1.60;;;9.10;99.90;;;;;;5095508;28;20079;-86
2022/12/20 04:20:22;;;;;;;2.22;1.40;;;9.00;99.90;;;;;;5095833;28;20056;-87
2022/12/20 04:23:40;;;;;;;3.38;1.45;;;9.00;99.90;;;;;;5096524;28;20044;-87
2022/12/20 04:27:10;;;;;;;;;;;;;;;;;;;;;
2022/12/20 04:30:30;;;;;;;5.72;1.80;;;9.00;99.90;;;;;;5096682;28;20040;-87
2022/12/20 04:33:38;;;;;;;2.78;1.40;;;9.10;99.90;;;;;;5094549;28;20114;-87
2022/12/20 04:36:48;;;;;;;;;;;;;;;;;;;;;
2022/12/20 04:40:00;;;;;;;;;;;;;;;;;;;;;
2022/12/20 04:43:30;;;;;;;2.88;1.60;;;9.20;99.90;;;;;;5094174;28;20044;-86
2022/12/20 04:46:50;;;;;;;;;;;;;;;;;;;;;
2022/12/20 04:50:16;;;;;;;;;;;;;;;;;;;;;
2022/12/20 04:56:48;;;;;;;4.35;2.00;;;9.20;99.90;;;;;;4994781;28;20047;-86
2022/12/20 05:00:06;;;;;;;4.28;1.83;;;9.20;99.90;;;;;;5005431;28;20057;-85
2022/12/20 05:03:01;;;;;;;3.38;1.90;;;9.20;99.90;;;;;;4974912;28;20058;-86
2022/12/20 05:06:20;;;;;;;4.72;1.42;;;9.20;99.90;;;;;;4974535;28;20055;-86
2022/12/20 05:09:32;;;;;;;;;;;;;;;;;;;;;
2022/12/20 05:12:28;;;;;;;3.58;1.63;;;9.20;99.90;;;;;;5013827;28;20054;-86
2022/12/20 05:15:38;;;;;;;;;;;;;;;;;;;;;
2022/12/20 05:19:02;;;;;;;8.45;1.70;;;9.30;99.90;;;;;;5084764;28;20048;-89
2022/12/20 05:29:28;;;;;;;;;;;;;;;;;;;;;
2022/12/20 05:32:57;;;;;;;4.82;1.58;;;9.30;99.90;;;;;;5093426;28;20126;-84
2022/12/20 05:36:18;;;;;;;5.65;1.55;;;9.40;99.90;;;;;;5115785;28;20043;-84
2022/12/20 05:39:42;;;;;;;5.15;1.58;;;9.40;99.90;;;;;;5095248;28;20047;-84
2022/12/20 05:43:02;;;;;;;6.07;1.67;;;9.40;99.90;;;;;;5094712;28;20040;-84
2022/12/20 05:46:21;;;;;;;4.95;1.90;;;9.50;99.90;;;;;;5094964;28;20473;-85
2022/12/20 05:49:54;;;;;;;3.08;1.40;;;9.50;99.90;;;;;;5095132;28;20079;-85
2022/12/20 05:53:26;;;;;;;4.50;1.95;;;9.50;99.90;;;;;;5094667;28;20067;-85
2022/12/20 05:56:36;;;;;;;2.70;1.10;;;9.50;99.90;;;;;;5093870;28;20094;-84
2022/12/20 06:00:04;;;;;;;2.00;1.30;;;9.60;99.90;;;;;;5094371;28;20040;-83
2022/12/20 06:02:56;;;;;;;4.07;1.65;;;9.60;99.90;;;;;;5026152;28;20169;-84
2022/12/20 06:06:02;;;;;;;5.55;1.30;;;9.60;99.90;;;;;;5093654;28;20055;-84
2022/12/20 06:09:26;;;;;;;;;;;;;;;;;;;;;
2022/12/20 06:12:46;;;;;;;5.20;1.60;;;9.60;99.90;;;;;;5094765;28;20439;-84
2022/12/20 06:15:52;;;;;;;4.10;1.50;;;9.60;99.90;;;;;;5076248;28;20083;-85
2022/12/20 06:19:16;;;;;;;;;;;;;;;;;;;;;
2022/12/20 06:22:44;;;;;;;5.57;1.50;;;9.60;99.90;;;;;;5094544;28;20124;-84
2022/12/20 06:26:11;;;;;;;;;;;;;;;;;;;;;
2022/12/20 06:29:24;;;;;;;4.13;1.20;;;9.60;99.90;;;;;;5091631;28;20492;-84
2022/12/20 06:32:54;;;;;;;2.40;1.30;;;9.60;99.90;;;;;;5094230;28;20051;-82
2022/12/20 06:36:04;;;;;;;;;;;;;;;;;;;;;
2022/12/20 06:39:22;;;;;;;5.45;1.13;;;9.60;99.90;;;;;;5113371;28;20082;-84
2022/12/20 06:42:56;;;;;;;;;;;;;;;;;;;;;
2022/12/20 06:46:10;;;;;;;2.85;1.80;;;9.90;99.90;;;;;;5071373;28;20085;-84
2022/12/20 06:49:40;;;;;;;2.30;1.63;;;9.80;99.90;;;;;;5071726;28;20087;-84
2022/12/20 06:52:54;;;;;;;2.67;0.88;;;9.80;99.90;;;;;;5070366;28;20053;-82
2022/12/20 06:56:38;;;;;;;;;;;;;;;;;;;;;
2022/12/20 06:59:54;;;;;;;;;;;;;;;;;;;;;
2022/12/20 07:03:12;;;;;;;2.40;1.30;;;9.80;99.90;;;;;;5071372;28;20053;-82
2022/12/20 07:06:40;;;;;;;;;;;;;;;;;;;;;
2022/12/20 07:10:04;;;;;;;;;;;;;;;;;;;;;
2022/12/20 07:13:19;;;;;;;2.00;1.42;;;9.90;99.90;;;;;;5071535;28;20041;-83
2022/12/20 07:16:42;;;;;;;;;;;;;;;;;;;;;
2022/12/20 07:20:14;;;;;;;5.10;1.85;;;9.90;99.90;;;;;;5113729;28;20043;-83
2022/12/20 07:23:40;;;;;;;4.75;1.83;;;9.90;99.90;;;;;;5113372;28;20040;-83
2022/12/20 07:26:54;;;;;;;6.00;1.75;;;9.90;99.90;;;;;;5112547;28;20058;-82
2022/12/20 07:30:05;;;;;;;4.13;1.92;;;10.00;99.90;;;;;;5113154;28;20087;-84
2022/12/20 07:33:20;;;;;;;;;;;;;;;;;;;;;
2022/12/20 07:36:38;;;;;;;;;;;;;;;;;;;;;
2022/12/20 07:39:50;;;;;;;3.78;2.05;;;10.00;99.90;;;;;;5106591;28;20244;-83
2022/12/20 07:43:22;;;;;;;3.45;2.00;;;9.90;99.90;;;;;;5134077;28;20120;-83
2022/12/20 07:46:40;;;;;;;2.67;1.90;;;9.90;99.90;;;;;;5133422;28;20039;-85
2022/12/20 07:49:48;;;;;;;4.10;2.22;;;10.30;99.90;;;;;;5115417;28;20126;-85
2022/12/20 07:52:53;;;;;;;5.68;2.30;;;10.00;99.90;;;;;;5113104;28;20464;-84
2022/12/20 07:55:40;;;;;;;4.30;2.10;;;9.90;99.90;;;;;;5080016;28;20051;-83
2022/12/20 07:58:38;;;;;;;4.60;2.17;;;9.90;99.90;;;;;;5132574;28;20043;-85
2022/12/20 08:01:28;;;;;;;6.43;3.15;;;9.90;99.90;;;;;;5081152;28;20177;-86
2022/12/20 08:04:34;;;;;;;;;;;;;;;;;;;;;
2022/12/20 08:07:21;;;;;;;5.10;2.50;;;9.90;99.90;;;;;;5124942;28;20066;-83
2022/12/20 08:10:05;;;;;;;3.53;2.30;;;9.90;99.90;;;;;;5113427;28;20074;-85
2022/12/20 08:12:51;;;;;;;3.35;2.60;;;9.90;99.90;;;;;;5133734;28;20051;-86
2022/12/20 08:15:36;;;;;;;3.95;2.40;;;9.90;99.90;;;;;;5115370;28;20487;-84
2022/12/20 08:18:30;;;;;;;6.13;2.80;;;9.90;99.90;;;;;;5129043;28;20087;-87
2022/12/20 08:21:34;;;;;;;4.93;2.63;;;9.90;99.90;;;;;;5132725;28;20039;-85
2022/12/20 08:24:35;;;;;;;3.63;2.42;;;9.80;99.90;;;;;;5097583;28;20059;-84
2022/12/20 08:27:24;;;;;;;4.95;2.55;;;9.90;99.90;;;;;;5115262;28;20055;-86
2022/12/20 08:30:09;;;;;;;6.05;2.40;;;10.00;99.90;;;;;;5128141;28;20050;-85
2022/12/20 08:32:53;;;;;;;2.88;1.92;;;9.90;99.90;;;;;;5126699;28;20055;-84
2022/12/20 08:36:06;;;;;;;;;;;;;;;;;;;;;
2022/12/20 08:38:56;;;;;;;3.70;2.30;;;10.00;99.90;;;;;;5132175;28;20051;-84
2022/12/20 08:41:49;;;;;;;6.43;1.88;;;10.00;99.90;;;;;;5131661;28;20059;-85
2022/12/20 08:45:10;;;;;;;;;;;;;;;;;;;;;
2022/12/20 08:48:14;;;;;;;3.65;2.10;;;10.00;99.90;;;;;;5136528;27;20499;-83
2022/12/20 08:51:12;;;;;;;6.28;2.20;;;10.10;99.90;;;;;;5137300;27;20428;-86
2022/12/20 08:54:30;;;;;;;4.03;1.88;;;10.10;99.90;;;;;;5137129;27;20047;-83
2022/12/20 08:57:04;;;;;;;4.45;1.83;;;10.20;99.90;;;;;;5132571;27;20108;-83
2022/12/20 09:00:04;;;;;;;;;;;;;;;;;;;;;
2022/12/20 09:03:04;;;;;;;6.55;1.67;;;10.20;99.90;;;;;;5122520;27;20117;-84
2022/12/20 09:06:04;;;;;;;;;;;;;;;;;;;;;
2022/12/20 09:08:59;;;;;;;;;;;;;;;;;;;;;
2022/12/20 09:11:57;;;;;;;2.15;1.20;;;10.10;99.90;;;;;;5073552;28;20057;-84
2022/12/20 09:14:48;;;;;;;3.47;1.65;;;10.10;99.90;;;;;;5054851;28;20057;-85
2022/12/20 09:18:00;;;;;;;;;;;;;;;;;;;;;
2022/12/20 09:20:52;;;;;;;3.80;1.50;;;10.20;99.90;;;;;;5072401;28;20059;-83
2022/12/20 09:23:47;;;;;;;6.43;1.58;;;10.30;99.90;;;;;;5073116;28;20048;-84
2022/12/20 09:26:45;;;;;;;3.65;2.05;;;10.30;99.90;;;;;;5035664;28;20219;-84
2022/12/20 09:29:47;;;;;;;7.18;1.77;;;10.30;99.90;;;;;;5053152;28;20132;-83
2022/12/20 09:32:48;;;;;;;3.75;1.55;;;10.40;99.90;;;;;;4993903;28;20058;-86
2022/12/20 09:35:45;;;;;;;;;;;10.50;99.90;;;;;;4977764;28;20066;-84
2022/12/20 09:38:46;;;;;;;3.25;1.20;;;10.50;99.90;;;;;;5009634;28;19936;-83
2022/12/20 09:41:46;;;;;;;3.30;1.58;;;10.50;99.90;;;;;;4996889;28;20046;-85
2022/12/20 09:44:59;;;;;;;;;;;;;;;;;;;;;
2022/12/20 09:48:01;;;;;;;;;;;;;;;;;;;;;
2022/12/20 09:51:29;;;;;;;;;;;;;;;;;;;;;
2022/12/20 09:54:40;;;;;;;2.58;1.33;;;10.60;99.90;;;;;;5052653;28;20049;-89
2022/12/20 09:57:26;;;;;;;3.90;1.30;;;10.70;99.90;;;;;;5053638;28;20045;-87
2022/12/20 09:59:55;;;;;;;4.32;1.60;;;10.70;99.90;;;;;;5036870;28;20075;-89
2022/12/20 10:02:24;;;;;;;4.18;1.15;;;10.80;99.90;;;;;;5072566;28;20105;-88
2022/12/20 10:04:51;;;;;;;4.07;1.60;;;10.90;99.90;;;;;;5055903;28;20044;-87
2022/12/20 10:08:04;;;;;;;5.30;1.30;;;10.90;99.90;;;;;;5063152;28;20412;-87
2022/12/20 10:11:04;;;;;;;3.10;1.10;;;10.90;99.90;;;;;;5059360;28;20044;-83
2022/12/20 10:14:32;;;;;;;3.30;1.35;;;10.90;99.90;;;;;;5071503;28;20060;-85
2022/12/20 10:17:45;;;;;;;2.10;1.17;;;10.90;99.90;;;;;;5070185;28;20052;-83
2022/12/20 10:20:46;;;;;;;4.05;1.20;;;10.90;99.90;;;;;;5070362;28;20106;-89
2022/12/20 10:23:38;;;;;;;3.22;1.20;;;11.00;99.90;;;;;;5052828;28;20123;-84
2022/12/20 10:26:30;;;;;;;2.00;1.08;;;11.00;99.90;;;;;;5063394;28;20048;-84
2022/12/20 10:29:33;;;;;;;2.15;1.17;;;11.00;99.90;;;;;;5066178;28;20037;-86
2022/12/20 10:32:01;;;;;;;3.80;1.38;;;11.10;99.90;;;;;;5054839;28;20091;-82
2022/12/20 10:34:39;;;;;;;2.08;1.10;;;11.00;99.90;;;;;;5071685;28;20127;-85
2022/12/20 10:37:34;;;;;;;1.67;1.05;;;11.10;99.90;;;;;;5093656;28;20396;-89
2022/12/20 10:40:55;;;;;;;1.90;1.30;;;11.10;99.90;;;;;;5081157;27;20048;-87
2022/12/20 10:44:22;;;;;;;;;;;;;;;;;;;;;
2022/12/20 10:47:19;;;;;;;2.80;1.38;;;11.10;99.90;;;;;;5128534;27;20070;-87
2022/12/20 10:50:23;;;;;;;1.77;1.27;;;11.10;99.90;;;;;;5119068;27;20031;-85
2022/12/20 10:53:20;;;;;;;4.90;1.48;;;10.90;99.90;;;;;;5123836;27;20043;-86
2022/12/20 10:55:47;;;;;;;3.15;1.40;;;11.00;99.90;;;;;;5114022;28;20039;-85
2022/12/20 10:58:35;;;;;;;2.78;1.00;;;11.00;99.90;;;;;;5115331;27;20039;-87
2022/12/20 11:01:23;;;;;;;2.63;1.10;;;11.00;99.90;;;;;;5125418;27;20043;-84
2022/12/20 11:03:59;;;;;;;3.13;1.27;;;11.00;99.90;;;;;;5116414;27;20049;-84
2022/12/20 11:06:46;;;;;;;3.13;1.20;;;11.10;99.90;;;;;;5115487;27;20399;-87
2022/12/20 11:09:33;;;;;;;4.50;1.33;;;11.20;99.90;;;;;;5105803;27;20067;-86
2022/12/20 11:12:17;;;;;;;2.97;1.27;;;11.10;99.90;;;;;;5134302;27;20035;-86
2022/12/20 11:14:47;;;;;;;2.50;1.13;;;11.20;99.90;;;;;;5132178;27;20397;-83
2022/12/20 11:17:42;;;;;;;1.80;1.05;;;11.10;99.90;;;;;;5129378;27;20046;-87
2022/12/20 11:20:48;;;;;;;2.92;1.27;;;11.20;99.90;;;;;;5121513;27;20056;-84
2022/12/20 11:23:41;;;;;;;2.67;1.35;;;11.10;99.90;;;;;;5124869;27;20506;-85
2022/12/20 11:26:48;;;;;;;3.53;1.38;;;11.10;99.90;;;;;;5133768;27;20047;-84
2022/12/20 11:29:47;;;;;;;2.95;1.23;;;11.10;99.90;;;;;;5132821;27;20158;-84
2022/12/20 11:33:04;;;;;;;3.22;1.30;;;11.10;99.90;;;;;;5113524;28;20039;-83
2022/12/20 11:35:49;;;;;;;3.05;1.42;;;11.00;99.90;;;;;;5025976;28;20083;-87
2022/12/20 11:38:59;;;;;;;2.08;1.00;;;11.00;99.90;;;;;;5030732;28;20430;-85
2022/12/20 11:41:50;;;;;;;3.92;1.30;;;10.90;99.90;;;;;;5014161;28;20050;-83
2022/12/20 11:44:39;;;;;;;2.10;1.20;;;10.90;99.90;;;;;;5014108;28;20077;-86
2022/12/20 11:47:55;;;;;;;2.80;1.10;;;10.90;99.90;;;;;;5030185;28;20425;-84
2022/12/20 11:50:45;;;;;;;2.38;1.10;;;10.80;99.90;;;;;;5029152;28;20080;-82
2022/12/20 11:53:36;;;;;;;6.65;1.20;;;10.80;99.90;;;;;;5030300;28;20080;-83
2022/12/20 11:56:13;;;;;;;3.17;1.30;;;10.80;99.90;;;;;;5013656;28;20501;-84
2022/12/20 11:59:02;;;;;;;4.07;1.30;;;10.80;99.90;;;;;;5030586;28;20057;-85
2022/12/20 12:01:41;;;;;;;3.05;1.30;;;10.80;99.90;;;;;;5030369;28;20108;-83
2022/12/20 12:04:50;;;;;;;2.67;1.05;;;10.80;99.90;;;;;;5013950;28;20088;-89
2022/12/20 12:07:56;;;;;;;1.85;1.17;;;10.80;99.90;;;;;;5011017;28;20089;-84
2022/12/20 12:11:00;;;;;;;3.00;1.30;;;10.80;99.90;;;;;;5031877;28;20109;-86
2022/12/20 12:14:18;;;;;;;;;;;;;;;;;;;;;
2022/12/20 12:17:38;;;;;;;;;;;;;;;;;;;;;
2022/12/20 12:20:58;;;;;;;2.97;0.93;;;10.80;99.90;;;;;;5116258;28;20015;-84
2022/12/20 12:24:28;;;;;;;;;;;;;;;;;;;;;
2022/12/20 12:27:28;;;;;;;2.47;1.27;;;10.70;99.90;;;;;;5116771;28;20047;-86
2022/12/20 12:30:30;;;;;;;2.35;1.30;;;10.70;99.90;;;;;;5116154;28;20100;-86
2022/12/20 12:33:29;;;;;;;2.55;1.45;;;10.70;99.90;;;;;;5081154;28;20051;-85
2022/12/20 12:36:40;;;;;;;3.08;1.42;;;10.70;99.90;;;;;;5115842;28;20047;-84
2022/12/20 12:39:59;;;;;;;3.33;1.13;;;10.70;99.90;;;;;;5095378;28;20048;-86
2022/12/20 12:43:16;;;;;;;2.10;1.20;;;10.70;99.90;;;;;;5095052;28;20048;-86
2022/12/20 12:46:34;;;;;;;2.60;1.33;;;10.70;99.90;;;;;;5014206;28;20163;-85
2022/12/20 12:49:48;;;;;;;2.90;1.30;;;10.70;99.90;;;;;;5014203;28;20586;-87
2022/12/20 12:53:00;;;;;;;;;;;;;;;;;;;;;
2022/12/20 12:56:42;;;;;;;2.90;1.00;;;10.70;99.90;;;;;;5013698;28;20060;-86
2022/12/20 12:59:45;;;;;;;3.13;1.20;;;10.60;99.90;;;;;;5012872;28;20502;-86
2022/12/20 13:02:54;;;;;;;2.67;1.30;;;10.60;99.90;;;;;;5012756;28;20045;-85
2022/12/20 13:05:49;;;;;;;3.00;1.30;;;10.60;99.90;;;;;;5013760;28;20042;-85
2022/12/20 13:09:22;;;;;;;;;;;;;;;;;;;;;
2022/12/20 13:12:24;;;;;;;4.50;1.70;;;10.60;99.90;;;;;;5012331;28;20073;-85
2022/12/20 13:15:31;;;;;;;2.55;1.50;;;10.70;99.90;;;;;;4997476;28;20080;-84
2022/12/20 13:18:33;;;;;;;2.05;1.40;;;10.60;99.90;;;;;;4952125;28;20046;-86
2022/12/20 13:21:31;;;;;;;3.75;1.67;;;10.60;99.90;;;;;;5012877;28;20050;-87
2022/12/20 13:25:06;;;;;;;2.35;1.50;;;10.50;99.90;;;;;;5094211;28;20048;-84
2022/12/20 13:28:00;;;;;;;2.25;1.50;;;10.50;99.90;;;;;;5095388;28;20044;-84
2022/12/20 13:31:13;;;;;;;5.75;1.98;;;10.50;99.90;;;;;;5094460;28;20460;-84
2022/12/20 13:34:14;;;;;;;3.50;1.98;;;10.50;99.90;;;;;;5094368;28;20051;-86
2022/12/20 13:37:14;;;;;;;3.83;2.13;;;10.60;99.90;;;;;;5096057;28;20037;-83
2022/12/20 13:40:10;;;;;;;2.97;1.90;;;10.50;99.90;;;;;;5093043;28;20492;-85
2022/12/20 13:43:14;;;;;;;;;;;;;;;;;;;;;
2022/12/20 13:46:14;;;;;;;3.17;2.03;;;10.50;99.90;;;;;;5094798;28;20040;-84
2022/12/20 13:49:07;;;;;;;3.63;2.20;;;10.50;99.90;;;;;;5094805;28;20503;-85
2022/12/20 13:52:16;;;;;;;4.45;2.25;;;10.50;99.90;;;;;;5093438;28;20051;-86
2022/12/20 13:55:34;;;;;;;4.32;2.40;;;10.50;99.90;;;;;;5094909;28;20075;-85
2022/12/20 13:59:00;;;;;;;4.80;2.72;;;10.50;99.90;;;;;;5094712;28;20040;-84
2022/12/20 14:02:15;;;;;;;;;;;;;;;;;;;;;
2022/12/20 14:05:11;;;;;;;3.80;2.25;;;10.50;99.90;;;;;;5044432;28;20056;-83
2022/12/20 14:08:12;;;;;;;;;;;;;;;;;;;;;
2022/12/20 14:11:42;;;;;;;;;;;;;;;;;;;;;
2022/12/20 14:14:44;;;;;;;4.95;2.72;;;10.50;99.90;;;;;;5093764;28;20130;-83
2022/12/20 14:17:45;;;;;;;6.53;2.97;;;10.50;99.90;;;;;;5093466;28;20496;-84
2022/12/20 14:20:46;;;;;;;7.07;3.42;;;10.50;99.90;;;;;;5094210;28;20040;-83
2022/12/20 14:23:39;;;;;;;4.20;2.70;;;10.50;99.90;;;;;;5076013;28;20395;-83
2022/12/20 14:26:46;;;;;;;4.82;2.97;;;10.50;99.90;;;;;;5093751;28;20047;-85
2022/12/20 14:29:57;;;;;;;;;;;;;;;;;;;;;
2022/12/20 14:32:59;;;;;;;4.32;2.63;;;10.50;99.90;;;;;;5094500;28;20048;-85
2022/12/20 14:36:06;;;;;;;;;;;;;;;;;;;;;
2022/12/20 14:39:32;;;;;;;8.23;2.55;;;10.50;99.90;;;;;;5093328;28;20044;-84
2022/12/20 14:43:00;;;;;;;;;;;;;;;;;;;;;
2022/12/20 14:46:16;;;;;;;5.30;3.25;;;10.50;99.90;;;;;;5113595;28;20095;-85
2022/12/20 14:49:21;;;;;;;4.20;3.30;;;10.50;99.90;;;;;;5113960;28;20137;-86
2022/12/20 14:52:24;;;;;;;6.60;3.50;;;10.50;99.90;;;;;;5113872;28;20055;-86
2022/12/20 14:55:35;;;;;;;;;;;;;;;;;;;;;
2022/12/20 14:58:50;;;;;;;;;;;;;;;;;;;;;
2022/12/20 15:01:54;;;;;;;7.35;4.18;;;10.40;99.90;;;;;;5114144;28;20404;-86
2022/12/20 15:05:00;;;;;;;6.85;4.65;;;10.50;99.90;;;;;;5113592;28;20044;-86
2022/12/20 15:08:00;;;;;;;6.35;4.63;;;10.40;99.90;;;;;;5093617;28;20131;-85
2022/12/20 15:11:23;;;;;;;5.97;3.75;;;10.40;99.90;;;;;;5110911;28;20504;-85
2022/12/20 15:14:45;;;;;;;7.18;4.10;;;10.40;99.90;;;;;;5113885;28;20055;-83
2022/12/20 15:17:46;;;;;;;;;;;;;;;;;;;;;
2022/12/20 15:20:48;;;;;;;6.47;4.22;;;10.40;99.90;;;;;;5095893;28;20075;-86
2022/12/20 15:23:46;;;;;;;8.77;5.25;;;10.40;99.90;;;;;;5044779;28;20109;-87
2022/12/20 15:27:04;;;;;;;;;;;;;;;;;;;;;
2022/12/20 15:30:25;;;;;;;10.18;5.93;;;10.40;99.90;;;;;;5113807;28;20123;-85
2022/12/20 15:33:14;;;;;;;;;;;10.40;99.90;;;;;;5114165;28;20043;-86
2022/12/20 15:36:32;;;;;;;;;;;;;;;;;;;;;
2022/12/20 15:39:59;;;;;;;8.95;5.32;;;10.40;99.90;;;;;;5113431;28;20491;-87
2022/12/20 15:43:06;;;;;;;7.10;5.15;;;10.30;99.90;;;;;;5112549;28;20135;-86
2022/12/20 15:46:32;;;;;;;8.25;5.30;;;10.80;99.90;;;;;;5113279;28;20106;-86
2022/12/20 15:50:02;;;;;;;;;;;;;;;;;;;;;
2022/12/20 15:53:34;;;;;;;;;;;;;;;;;;;;;
2022/12/20 15:56:42;;;;;;;8.63;5.18;;;10.30;99.90;;;;;;5054925;28;20049;-83
2022/12/20 16:00:06;;;;;;;;;;;;;;;;;;;;;
2022/12/20 16:03:18;;;;;;;11.27;6.55;;;10.30;99.90;;;;;;5044874;28;20151;-84
2022/12/20 16:06:42;;;;;;;10.05;7.03;;;10.30;99.90;;;;;;5054651;28;20423;-84
2022/12/20 16:09:39;;;;;;;10.93;6.20;;;10.30;99.90;;;;;;5054492;28;20044;-85
2022/12/20 16:12:56;;;;;;;;;;;;;;;;;;;;;
2022/12/20 16:16:14;;;;;;;10.73;6.60;;;10.30;99.90;;;;;;5034442;28;20055;-83
2022/12/20 16:19:44;;;;;;;9.75;5.60;;;10.30;99.90;;;;;;5054811;28;20055;-84
2022/12/20 16:23:02;;;;;;;9.32;6.00;;;10.20;99.90;;;;;;5050004;28;20053;-86
2022/12/20 16:26:14;;;;;;;;;;;;;;;;;;;;;
2022/12/20 16:29:52;;;;;;;;;;;;;;;;;;;;;
2022/12/20 16:33:10;;;;;;;;;;;;;;;;;;;;;
2022/12/20 16:35:56;;;;;;;5.13;3.33;;;10.10;99.90;;;;;;5074472;28;20044;-86
2022/12/20 16:39:06;;;;;;;7.07;4.10;;;10.10;99.90;;;;;;5073081;28;20068;-87
2022/12/20 16:42:38;;;;;;;;;;;;;;;;;;;;;
2022/12/20 16:46:04;;;;;;;6.13;3.35;;;10.00;99.90;;;;;;5073736;28;20041;-87
2022/12/20 16:49:19;;;;;;;9.43;4.18;;;10.00;99.90;;;;;;5114484;28;20047;-85
2022/12/20 16:52:38;;;;;;;;;;;;;;;;;;;;;
2022/12/20 16:56:00;;;;;;;4.45;3.28;;;9.90;99.90;;;;;;5113359;28;20377;-84
2022/12/20 16:59:24;;;;;;;;;;;;;;;;;;;;;
2022/12/20 17:02:48;;;;;;;4.50;3.00;;;9.90;99.90;;;;;;4992100;28;20115;-83
2022/12/20 17:06:02;;;;;;;;;;;;;;;;;;;;;
2022/12/20 17:08:57;;;;;;;5.28;2.95;;;9.90;99.90;;;;;;5031218;28;20062;-82
2022/12/20 17:12:03;;;;;;;;;;;;;;;;;;;;;
2022/12/20 17:15:30;;;;;;;4.82;3.00;;;9.90;99.90;;;;;;5013665;28;20062;-85
2022/12/20 17:18:48;;;;;;;5.70;3.35;;;9.80;99.90;;;;;;5013667;28;20132;-85
2022/12/20 17:22:11;;;;;;;4.60;2.90;;;9.80;99.90;;;;;;5010891;28;20088;-84
2022/12/20 17:25:44;;;;;;;;;;;;;;;;;;;;;
2022/12/20 17:29:01;;;;;;;;;;;;;;;;;;;;;
2022/12/20 17:32:24;;;;;;;4.72;2.60;;;9.80;99.90;;;;;;4974651;28;20058;-86
2022/12/20 17:35:54;;;;;;;;;;;;;;;;;;;;;
2022/12/20 17:39:14;;;;;;;4.57;2.88;;;9.70;99.90;;;;;;5056169;28;20123;-86
2022/12/20 17:42:28;;;;;;;;;;;;;;;;;;;;;
2022/12/20 17:46:06;;;;;;;;;;;;;;;;;;;;;
2022/12/20 17:49:36;;;;;;;;;;;;;;;;;;;;;
2022/12/20 17:53:04;;;;;;;;;;;;;;;;;;;;;
2022/12/20 17:56:26;;;;;;;4.72;2.83;;;9.50;99.90;;;;;;5092489;28;20040;-86
2022/12/20 17:59:32;;;;;;;;;;;;;;;;;;;;;
2022/12/20 18:02:53;;;;;;;7.30;4.00;;;9.60;99.90;;;;;;5107567;27;20012;-86
2022/12/20 18:06:12;;;;;;;;;;;;;;;;;;;;;
2022/12/20 18:08:55;;;;;;;5.10;2.70;;;9.50;99.90;;;;;;5134997;27;20086;-84
2022/12/20 18:12:04;;;;;;;4.53;3.03;;;9.50;99.90;;;;;;5113397;28;20043;-87
2022/12/20 18:15:22;;;;;;;;;;;;;;;;;;;;;
2022/12/20 18:18:54;;;;;;;;;;;;;;;;;;;;;
2022/12/20 18:22:13;;;;;;;3.72;2.42;;;9.50;99.90;;;;;;5114818;28;20058;-86
2022/12/20 18:25:32;;;;;;;;;;;;;;;;;;;;;
2022/12/20 18:28:43;;;;;;;4.82;2.50;;;9.50;99.90;;;;;;5114827;28;20044;-85
2022/12/20 18:32:12;;;;;;;5.30;3.10;;;9.50;99.90;;;;;;5063018;28;20189;-85
2022/12/20 18:35:36;;;;;;;;;;;;;;;;;;;;;
2022/12/20 18:39:08;;;;;;;;;;;;;;;;;;;;;
2022/12/20 18:42:38;;;;;;;;;;;;;;;;;;;;;
2022/12/20 18:45:56;;;;;;;;;;;;;;;;;;;;;
2022/12/20 18:49:16;;;;;;;;;;;;;;;;;;;;;
2022/12/20 18:52:42;;;;;;;;;;;;;;;;;;;;;
2022/12/20 18:56:06;;;;;;;8.98;4.80;;;9.40;99.90;;;;;;5135252;27;20381;-88
2022/12/20 18:59:20;;;;;;;6.18;3.60;;;9.40;99.90;;;;;;5114452;27;20052;-86
2022/12/20 19:02:16;;;;;;;5.25;2.97;;;9.40;99.90;;;;;;5133808;27;20051;-88
2022/12/20 19:05:26;;;;;;;;;;;;;;;;;;;;;
2022/12/20 19:08:46;;;;;;;4.57;2.60;;;9.40;99.90;;;;;;5134648;27;20043;-85
2022/12/20 19:12:03;;;;;;;5.47;2.75;;;9.30;99.90;;;;;;5133440;27;20074;-88
2022/12/20 19:15:24;;;;;;;5.78;3.10;;;9.30;99.90;;;;;;5133372;27;20043;-89
2022/12/20 19:18:38;;;;;;;3.60;2.25;;;9.30;99.90;;;;;;5132987;27;20483;-85
2022/12/20 19:21:42;;;;;;;7.35;3.05;;;9.30;99.90;;;;;;5133634;27;20051;-87
2022/12/20 19:24:58;;;;;;;;;;;;;;;;;;;;;
2022/12/20 19:28:10;;;;;;;6.25;2.97;;;9.30;99.90;;;;;;5133760;27;20075;-88
2022/12/20 19:31:09;;;;;;;;;;;;;;;;;;;;;